createdAt,value
2022-07-31T00:00:32.961Z,2.77
2022-07-31T00:03:01.859Z,2.57
2022-07-31T00:05:29.380Z,2.53
2022-07-31T00:07:56.879Z,2.70
2022-07-31T00:10:24.447Z,2.60
2022-07-31T00:12:51.940Z,2.63
2022-07-31T00:15:19.613Z,2.53
2022-07-31T00:17:47.243Z,2.93
2022-07-31T00:20:18.133Z,3.47
2022-07-31T00:22:47.087Z,2.97
2022-07-31T00:25:15.893Z,3.27
2022-07-31T00:27:43.340Z,2.83
2022-07-31T00:30:12.885Z,3.07
2022-07-31T00:32:40.396Z,2.77
2022-07-31T00:35:08.761Z,2.83
2022-07-31T00:37:38.422Z,2.87
2022-07-31T00:40:08.341Z,3.00
2022-07-31T00:42:36.142Z,3.00
2022-07-31T00:45:04.158Z,2.90
2022-07-31T00:47:33.208Z,3.10
2022-07-31T00:50:01.392Z,2.97
2022-07-31T00:52:28.923Z,2.90
2022-07-31T00:54:57.744Z,3.03
2022-07-31T00:57:25.210Z,2.80
2022-07-31T00:59:52.663Z,3.03
2022-07-31T01:02:20.161Z,3.00
2022-07-31T01:04:47.639Z,3.10
2022-07-31T01:07:15.170Z,2.90
2022-07-31T01:09:42.592Z,2.90
2022-07-31T01:12:14.621Z,2.60
2022-07-31T01:14:44.632Z,2.90
2022-07-31T01:17:13.499Z,2.93
2022-07-31T01:19:43.433Z,2.97
2022-07-31T01:22:33.578Z,3.03
2022-07-31T01:25:04.991Z,3.00
2022-07-31T01:27:49.694Z,2.80
2022-07-31T01:30:19.536Z,2.93
2022-07-31T01:32:49.106Z,3.00
2022-07-31T01:35:17.490Z,3.10
2022-07-31T01:37:46.424Z,3.10
2022-07-31T01:40:15.190Z,3.20
2022-07-31T01:42:44.066Z,2.90
2022-07-31T01:45:14.453Z,3.10
2022-07-31T01:47:44.407Z,3.00
2022-07-31T01:50:43.303Z,3.10
2022-07-31T01:53:01.137Z,2.87
2022-07-31T01:55:29.741Z,3.00
2022-07-31T01:57:57.621Z,2.80
2022-07-31T02:00:38.637Z,2.50
2022-07-31T02:03:09.424Z,3.13
2022-07-31T02:05:38.560Z,3.33
2022-07-31T02:08:07.149Z,3.00
2022-07-31T02:10:35.445Z,3.10
2022-07-31T02:13:03.767Z,3.20
2022-07-31T02:15:32.341Z,2.90
2022-07-31T02:18:00.944Z,3.27
2022-07-31T02:20:31.103Z,3.20
2022-07-31T02:22:59.115Z,3.23
2022-07-31T02:25:26.858Z,3.13
2022-07-31T02:27:57.883Z,3.40
2022-07-31T02:30:27.886Z,3.20
2022-07-31T02:33:09.160Z,3.00
2022-07-31T02:35:38.953Z,2.93
2022-07-31T02:38:22.861Z,2.90
2022-07-31T02:40:51.664Z,3.30
2022-07-31T02:43:19.812Z,3.10
2022-07-31T02:45:47.599Z,3.07
2022-07-31T02:48:15.101Z,3.30
2022-07-31T02:50:43.961Z,3.10
2022-07-31T02:53:12.683Z,3.17
2022-07-31T02:55:41.236Z,3.10
2022-07-31T02:58:08.959Z,2.90
2022-07-31T03:00:36.487Z,3.37
2022-07-31T03:03:04.047Z,3.00
2022-07-31T03:05:32.256Z,2.60
2022-07-31T03:08:01.102Z,3.17
2022-07-31T03:10:28.877Z,2.90
2022-07-31T03:12:56.503Z,3.03
2022-07-31T03:15:26.629Z,2.57
2022-07-31T03:17:54.804Z,3.00
2022-07-31T03:20:22.569Z,2.80
2022-07-31T03:22:50.413Z,2.97
2022-07-31T03:25:22.067Z,3.13
2022-07-31T03:27:52.514Z,3.03
2022-07-31T03:30:25.072Z,2.83
2022-07-31T03:32:52.982Z,2.87
2022-07-31T03:35:20.497Z,3.03
2022-07-31T03:37:47.992Z,3.30
2022-07-31T03:40:15.565Z,3.13
2022-07-31T03:42:44.619Z,2.97
2022-07-31T03:45:13.341Z,3.43
2022-07-31T03:47:40.880Z,3.13
2022-07-31T03:50:09.122Z,3.23
2022-07-31T03:52:37.796Z,3.10
2022-07-31T03:55:05.511Z,3.03
2022-07-31T03:57:34.196Z,3.40
2022-07-31T04:00:03.829Z,3.20
2022-07-31T04:02:32.484Z,3.07
2022-07-31T04:05:00.126Z,2.90
2022-07-31T04:07:27.706Z,3.57
2022-07-31T04:09:55.416Z,3.43
2022-07-31T04:12:22.942Z,3.00
2022-07-31T04:14:50.361Z,3.10
2022-07-31T04:17:19.240Z,3.10
2022-07-31T04:19:46.699Z,3.43
2022-07-31T04:22:14.162Z,3.20
2022-07-31T04:24:41.739Z,3.30
2022-07-31T04:27:12.672Z,3.33
2022-07-31T04:29:40.537Z,3.27
2022-07-31T04:32:08.361Z,2.97
2022-07-31T04:34:37.233Z,3.00
2022-07-31T04:37:04.926Z,3.27
2022-07-31T04:39:32.374Z,3.00
2022-07-31T04:41:59.933Z,3.07
2022-07-31T04:44:27.431Z,3.20
2022-07-31T04:46:59.148Z,2.97
2022-07-31T04:49:26.738Z,2.90
2022-07-31T04:51:55.584Z,3.10
2022-07-31T04:54:23.082Z,2.97
2022-07-31T04:56:50.567Z,2.80
2022-07-31T04:59:20.146Z,2.80
2022-07-31T05:01:48.182Z,3.60
2022-07-31T05:04:16.155Z,3.20
2022-07-31T05:06:44.440Z,3.27
2022-07-31T05:09:18.839Z,3.10
2022-07-31T05:11:47.063Z,2.87
2022-07-31T05:14:15.231Z,3.00
2022-07-31T05:16:42.727Z,2.90
2022-07-31T05:19:13.724Z,2.80
2022-07-31T05:21:53.133Z,3.27
2022-07-31T05:24:32.748Z,3.30
2022-07-31T05:27:01.625Z,3.03
2022-07-31T05:29:29.038Z,3.33
2022-07-31T05:32:00.341Z,3.20
2022-07-31T05:34:29.197Z,3.20
2022-07-31T05:36:57.716Z,3.07
2022-07-31T05:39:26.584Z,3.00
2022-07-31T05:41:54.055Z,3.10
2022-07-31T05:44:21.798Z,3.10
2022-07-31T05:49:16.621Z,3.07
2022-07-31T05:51:44.611Z,3.03
2022-07-31T05:54:12.017Z,3.17
2022-07-31T05:56:40.808Z,3.00
2022-07-31T05:59:08.511Z,2.87
2022-07-31T06:01:35.996Z,3.03
2022-07-31T06:04:03.593Z,2.87
2022-07-31T06:06:31.118Z,3.40
2022-07-31T06:09:04.034Z,3.10
2022-07-31T06:11:32.407Z,3.13
2022-07-31T06:14:02.200Z,3.20
2022-07-31T06:16:29.769Z,3.30
2022-07-31T06:18:57.232Z,3.30
2022-07-31T06:21:30.112Z,3.50
2022-07-31T06:23:58.188Z,3.63
2022-07-31T06:26:26.200Z,3.70
2022-07-31T06:28:55.294Z,3.47
2022-07-31T06:31:24.114Z,3.60
2022-07-31T06:33:52.790Z,3.30
2022-07-31T06:36:20.460Z,3.40
2022-07-31T06:38:48.041Z,3.03
2022-07-31T06:41:35.462Z,3.10
2022-07-31T06:44:02.950Z,3.50
2022-07-31T06:46:31.822Z,3.33
2022-07-31T06:48:59.363Z,3.17
2022-07-31T06:51:30.831Z,3.33
2022-07-31T06:53:59.436Z,3.07
2022-07-31T06:56:26.918Z,2.90
2022-07-31T06:58:55.120Z,3.03
2022-07-31T07:01:22.660Z,3.70
2022-07-31T07:03:51.614Z,2.80
2022-07-31T07:06:19.170Z,2.87
2022-07-31T07:08:46.645Z,2.90
2022-07-31T07:11:14.246Z,2.80
2022-07-31T07:13:44.926Z,2.83
2022-07-31T07:16:13.997Z,2.90
2022-07-31T07:18:42.965Z,2.50
2022-07-31T07:21:12.286Z,2.80
2022-07-31T07:23:40.109Z,2.60
2022-07-31T07:26:07.768Z,2.60
2022-07-31T07:28:35.295Z,2.53
2022-07-31T07:31:02.796Z,2.77
2022-07-31T07:33:40.107Z,2.70
2022-07-31T07:36:21.762Z,2.87
2022-07-31T07:38:53.512Z,3.07
2022-07-31T07:41:22.415Z,2.60
2022-07-31T07:43:51.789Z,2.60
2022-07-31T07:46:20.445Z,2.63
2022-07-31T07:48:49.152Z,2.80
2022-07-31T07:51:16.728Z,3.23
2022-07-31T07:53:44.243Z,2.70
2022-07-31T07:56:13.057Z,2.93
2022-07-31T07:58:40.709Z,2.70
2022-07-31T08:01:08.188Z,2.90
2022-07-31T08:03:49.213Z,3.10
2022-07-31T08:06:19.438Z,2.80
2022-07-31T08:08:46.857Z,2.63
2022-07-31T08:11:17.423Z,2.30
2022-07-31T08:13:49.730Z,2.20
2022-07-31T08:16:17.450Z,2.50
2022-07-31T08:18:44.951Z,2.10
2022-07-31T08:21:12.588Z,2.10
2022-07-31T08:23:40.051Z,2.00
2022-07-31T08:26:08.357Z,2.00
2022-07-31T08:28:37.654Z,2.20
2022-07-31T08:31:05.188Z,1.90
2022-07-31T08:33:33.958Z,2.03
2022-07-31T08:36:01.892Z,2.00
2022-07-31T08:38:29.681Z,1.90
2022-07-31T08:40:57.115Z,2.20
2022-07-31T08:44:02.189Z,1.90
2022-07-31T08:46:13.676Z,2.10
2022-07-31T08:48:41.658Z,2.13
2022-07-31T08:51:11.619Z,2.30
2022-07-31T08:53:39.896Z,2.30
2022-07-31T08:56:09.199Z,2.20
2022-07-31T08:58:39.691Z,2.43
2022-07-31T09:01:08.132Z,2.17
2022-07-31T09:03:37.149Z,2.40
2022-07-31T09:06:05.009Z,2.23
2022-07-31T09:08:32.636Z,2.40
2022-07-31T09:11:03.395Z,2.40
2022-07-31T09:13:34.706Z,2.40
2022-07-31T09:16:02.655Z,2.70
2022-07-31T09:18:30.691Z,2.23
2022-07-31T09:21:00.415Z,2.20
2022-07-31T09:23:30.272Z,2.00
2022-07-31T09:25:58.310Z,2.30
2022-07-31T09:28:32.490Z,2.20
2022-07-31T09:31:00.200Z,2.33
2022-07-31T09:33:29.492Z,2.30
2022-07-31T09:35:57.442Z,2.40
2022-07-31T09:38:32.191Z,2.20
2022-07-31T09:41:53.678Z,2.10
2022-07-31T09:43:57.447Z,2.20
2022-07-31T09:46:24.898Z,2.40
2022-07-31T09:48:56.609Z,1.90
2022-07-31T09:51:27.742Z,2.13
2022-07-31T09:53:57.870Z,1.90
2022-07-31T09:56:30.878Z,2.23
2022-07-31T09:58:58.312Z,2.00
2022-07-31T10:01:26.469Z,2.10
2022-07-31T10:03:54.148Z,2.00
2022-07-31T10:06:21.712Z,1.97
2022-07-31T10:08:49.688Z,1.90
2022-07-31T10:11:20.284Z,2.40
2022-07-31T10:13:49.676Z,2.20
2022-07-31T10:16:17.340Z,2.27
2022-07-31T10:18:48.153Z,2.13
2022-07-31T10:21:16.777Z,2.00
2022-07-31T10:23:45.041Z,2.27
2022-07-31T10:26:12.913Z,2.10
2022-07-31T10:28:42.129Z,1.83
2022-07-31T10:31:12.629Z,1.77
2022-07-31T10:33:44.144Z,1.67
2022-07-31T10:36:14.198Z,1.83
2022-07-31T10:38:44.176Z,2.00
2022-07-31T10:41:17.584Z,1.67
2022-07-31T10:43:48.929Z,1.60
2022-07-31T10:46:26.906Z,1.60
2022-07-31T10:48:54.604Z,1.40
2022-07-31T10:51:22.476Z,1.63
2022-07-31T10:53:58.637Z,1.50
2022-07-31T10:56:26.411Z,1.50
2022-07-31T10:58:57.395Z,1.47
2022-07-31T11:01:25.933Z,1.70
2022-07-31T11:03:54.733Z,1.50
2022-07-31T11:06:24.615Z,1.60
2022-07-31T11:08:53.158Z,1.53
2022-07-31T11:11:31.791Z,1.73
2022-07-31T11:14:00.692Z,1.57
2022-07-31T11:16:28.873Z,1.60
2022-07-31T11:19:00.101Z,1.53
2022-07-31T11:21:41.592Z,1.50
2022-07-31T11:24:15.986Z,1.50
2022-07-31T11:26:44.133Z,1.27
2022-07-31T11:30:00.379Z,1.50
2022-07-31T11:32:01.282Z,1.37
2022-07-31T11:34:28.779Z,1.40
2022-07-31T11:36:56.340Z,1.20
2022-07-31T11:39:33.398Z,1.47
2022-07-31T11:42:04.756Z,1.40
2022-07-31T11:44:36.394Z,1.30
2022-07-31T11:47:04.144Z,1.30
2022-07-31T11:50:00.917Z,1.30
2022-07-31T11:52:31.231Z,1.73
2022-07-31T11:55:08.784Z,1.50
2022-07-31T11:57:52.562Z,1.33
2022-07-31T12:00:26.783Z,1.30
2022-07-31T12:02:55.135Z,1.60
2022-07-31T12:05:37.648Z,1.50
2022-07-31T12:08:06.924Z,1.30
2022-07-31T12:10:34.529Z,1.50
2022-07-31T12:13:02.979Z,1.80
2022-07-31T12:15:31.841Z,1.70
2022-07-31T12:18:01.344Z,1.70
2022-07-31T12:20:35.276Z,1.77
2022-07-31T12:23:04.839Z,1.90
2022-07-31T12:25:42.344Z,1.90
2022-07-31T12:28:10.286Z,1.67
2022-07-31T12:30:39.150Z,1.70
2022-07-31T12:33:07.488Z,1.83
2022-07-31T12:35:55.899Z,1.80
2022-07-31T12:38:40.760Z,1.70
2022-07-31T12:41:12.523Z,1.93
2022-07-31T12:43:50.183Z,1.70
2022-07-31T12:46:21.835Z,5.63
2022-07-31T12:48:49.488Z,1.77
2022-07-31T12:51:20.269Z,1.87
2022-07-31T12:54:08.378Z,2.03
2022-07-31T12:56:36.024Z,1.80
2022-07-31T12:59:03.492Z,2.00
2022-07-31T13:01:32.587Z,2.00
2022-07-31T13:04:00.178Z,2.00
2022-07-31T13:06:31.324Z,2.07
2022-07-31T13:08:58.775Z,1.80
2022-07-31T13:11:28.879Z,1.90
2022-07-31T13:13:57.477Z,2.17
2022-07-31T13:16:24.934Z,1.97
2022-07-31T13:18:53.745Z,2.33
2022-07-31T13:21:21.295Z,2.00
2022-07-31T13:23:51.139Z,1.93
2022-07-31T13:26:20.834Z,2.10
2022-07-31T13:28:48.300Z,2.20
2022-07-31T13:31:15.816Z,2.00
2022-07-31T13:33:43.297Z,2.03
2022-07-31T13:36:12.303Z,2.30
2022-07-31T13:38:39.779Z,2.10
2022-07-31T13:41:23.984Z,2.30
2022-07-31T13:44:00.238Z,2.00
2022-07-31T13:46:28.408Z,1.97
2022-07-31T13:48:57.060Z,2.07
2022-07-31T13:51:28.917Z,2.20
2022-07-31T13:53:56.953Z,2.17
2022-07-31T13:56:39.407Z,2.23
2022-07-31T13:59:10.227Z,2.43
2022-07-31T14:02:02.740Z,2.50
2022-07-31T14:04:26.456Z,2.27
2022-07-31T14:07:03.464Z,2.27
2022-07-31T14:09:34.037Z,2.50
2022-07-31T14:12:05.799Z,2.30
2022-07-31T14:14:33.769Z,2.40
2022-07-31T14:17:01.242Z,2.30
2022-07-31T14:19:28.747Z,2.20
2022-07-31T14:21:57.556Z,2.40
2022-07-31T14:24:26.914Z,2.30
2022-07-31T14:26:54.476Z,2.43
2022-07-31T14:29:21.919Z,2.50
2022-07-31T14:31:49.460Z,2.40
2022-07-31T14:34:16.901Z,2.63
2022-07-31T14:36:44.379Z,2.57
2022-07-31T14:39:11.843Z,2.73
2022-07-31T14:41:40.703Z,2.67
2022-07-31T14:44:08.208Z,2.90
2022-07-31T14:46:35.680Z,2.60
2022-07-31T14:49:04.515Z,2.30
2022-07-31T14:51:32.045Z,2.40
2022-07-31T14:53:59.631Z,2.60
2022-07-31T14:56:45.436Z,2.47
2022-07-31T14:59:16.057Z,2.50
2022-07-31T15:01:43.564Z,2.30
2022-07-31T15:04:11.018Z,2.57
2022-07-31T15:06:53.388Z,2.23
2022-07-31T15:09:25.901Z,2.70
2022-07-31T15:11:59.609Z,2.57
2022-07-31T15:14:30.165Z,2.43
2022-07-31T15:16:57.657Z,2.40
2022-07-31T15:19:25.187Z,2.20
2022-07-31T15:22:11.391Z,2.27
2022-07-31T15:24:43.870Z,2.50
2022-07-31T15:27:17.062Z,2.23
2022-07-31T15:30:00.270Z,2.40
2022-07-31T15:32:33.745Z,2.50
2022-07-31T15:35:01.225Z,2.33
2022-07-31T15:37:28.666Z,2.30
2022-07-31T15:40:02.237Z,2.43
2022-07-31T15:42:30.651Z,2.40
2022-07-31T15:44:59.445Z,2.47
2022-07-31T15:47:26.922Z,2.27
2022-07-31T15:49:54.348Z,2.20
2022-07-31T15:52:21.907Z,2.40
2022-07-31T15:54:51.867Z,2.10
2022-07-31T15:57:19.925Z,2.30
2022-07-31T15:59:47.356Z,2.47
2022-07-31T16:02:16.331Z,2.20
2022-07-31T16:04:51.738Z,2.40
2022-07-31T16:08:28.664Z,2.30
2022-07-31T16:10:15.611Z,3.03
2022-07-31T16:12:44.515Z,2.47
2022-07-31T16:15:12.577Z,2.37
2022-07-31T16:17:41.577Z,2.60
2022-07-31T16:20:10.536Z,2.63
2022-07-31T16:22:38.034Z,2.70
2022-07-31T16:25:06.364Z,3.07
2022-07-31T16:27:33.871Z,2.40
2022-07-31T16:30:02.687Z,2.57
2022-07-31T16:32:30.953Z,2.60
2022-07-31T16:35:01.225Z,2.20
2022-07-31T16:37:50.597Z,2.20
2022-07-31T16:40:28.901Z,2.53
2022-07-31T16:42:59.476Z,2.77
2022-07-31T16:45:27.114Z,2.70
2022-07-31T16:47:54.531Z,2.40
2022-07-31T16:50:23.469Z,2.40
2022-07-31T16:52:54.606Z,2.80
2022-07-31T16:56:01.031Z,2.60
2022-07-31T16:58:11.468Z,2.60
2022-07-31T17:00:39.338Z,2.90
2022-07-31T17:03:06.910Z,3.10
2022-07-31T17:05:55.753Z,2.70
2022-07-31T17:08:23.208Z,2.70
2022-07-31T17:10:54.405Z,3.00
2022-07-31T17:13:22.406Z,2.80
2022-07-31T17:15:49.861Z,2.60
2022-07-31T17:18:17.356Z,2.93
2022-07-31T17:20:47.065Z,2.70
2022-07-31T17:23:16.007Z,2.80
2022-07-31T17:25:43.463Z,2.90
2022-07-31T17:28:15.032Z,2.50
2022-07-31T17:30:44.850Z,2.60
2022-07-31T17:33:12.405Z,2.60
2022-07-31T17:35:39.869Z,2.60
2022-07-31T17:38:07.419Z,2.53
2022-07-31T17:40:44.354Z,2.70
2022-07-31T17:43:13.370Z,2.80
2022-07-31T17:45:59.426Z,2.60
2022-07-31T17:48:28.459Z,2.53
2022-07-31T17:50:55.913Z,2.80
2022-07-31T17:53:23.459Z,2.30
2022-07-31T17:56:00.121Z,2.50
2022-07-31T17:58:27.607Z,2.50
2022-07-31T18:00:55.584Z,2.40
2022-07-31T18:03:23.384Z,2.20
2022-07-31T18:05:50.871Z,1.90
2022-07-31T18:08:18.382Z,2.20
2022-07-31T18:10:54.228Z,2.10
2022-07-31T18:13:23.652Z,2.10
2022-07-31T18:15:51.115Z,2.10
2022-07-31T18:18:18.623Z,2.30
2022-07-31T18:20:46.392Z,2.23
2022-07-31T18:23:14.455Z,2.30
2022-07-31T18:25:42.719Z,2.17
2022-07-31T18:28:10.144Z,2.00
2022-07-31T18:30:40.989Z,2.27
2022-07-31T18:33:10.151Z,2.00
2022-07-31T18:35:37.579Z,2.10
2022-07-31T18:38:05.062Z,2.17
2022-07-31T18:40:32.714Z,2.07
2022-07-31T18:43:00.816Z,2.17
2022-07-31T18:45:28.690Z,1.73
2022-07-31T18:47:57.508Z,1.77
2022-07-31T18:50:58.660Z,2.10
2022-07-31T18:53:12.930Z,2.13
2022-07-31T18:55:40.390Z,1.87
2022-07-31T18:58:08.918Z,1.70
2022-07-31T19:00:36.529Z,1.80
2022-07-31T19:03:05.428Z,1.60
2022-07-31T19:05:32.834Z,1.70
2022-07-31T19:08:00.355Z,2.03
2022-07-31T19:10:29.347Z,1.70
2022-07-31T19:12:58.147Z,1.73
2022-07-31T19:15:25.643Z,1.60
2022-07-31T19:17:54.751Z,1.60
2022-07-31T19:20:56.422Z,1.47
2022-07-31T19:23:15.975Z,1.90
2022-07-31T19:26:02.739Z,1.70
2022-07-31T19:28:31.108Z,1.63
2022-07-31T19:30:58.525Z,1.80
2022-07-31T19:33:26.032Z,1.73
2022-07-31T19:36:00.741Z,1.50
2022-07-31T19:38:29.215Z,1.60
2022-07-31T19:40:56.724Z,1.60
2022-07-31T19:43:24.189Z,1.80
2022-07-31T19:46:00.534Z,1.70
2022-07-31T19:48:40.451Z,1.50
2022-07-31T19:51:09.497Z,1.90
2022-07-31T19:53:37.322Z,1.67
2022-07-31T19:56:06.389Z,1.90
2022-07-31T19:58:35.009Z,1.60
2022-07-31T20:01:02.822Z,1.80
2022-07-31T20:03:30.500Z,1.80
2022-07-31T20:05:58.284Z,2.00
2022-07-31T20:08:28.064Z,1.87
2022-07-31T20:11:03.099Z,1.90
2022-07-31T20:13:31.107Z,1.70
2022-07-31T20:15:58.615Z,1.80
2022-07-31T20:18:28.815Z,1.70
2022-07-31T20:20:57.452Z,4.43
2022-07-31T20:23:25.036Z,1.60
2022-07-31T20:25:54.085Z,1.73
2022-07-31T20:28:21.670Z,1.60
2022-07-31T20:30:49.289Z,1.67
2022-07-31T20:33:16.765Z,1.70
2022-07-31T20:35:48.398Z,1.90
2022-07-31T20:38:17.471Z,2.00
2022-07-31T20:40:52.885Z,1.80
2022-07-31T20:43:23.942Z,1.60
2022-07-31T20:45:51.949Z,1.90
2022-07-31T20:48:21.420Z,1.60
2022-07-31T20:50:48.898Z,2.60
2022-07-31T20:53:16.358Z,2.07
2022-07-31T20:55:46.883Z,1.73
2022-07-31T20:58:14.591Z,2.10
2022-07-31T21:00:43.463Z,1.77
2022-07-31T21:03:10.994Z,1.90
2022-07-31T21:05:38.427Z,2.00
2022-07-31T21:08:06.036Z,2.40
2022-07-31T21:10:34.100Z,2.50
2022-07-31T21:13:01.566Z,2.70
2022-07-31T21:15:42.555Z,2.73
2022-07-31T21:18:13.387Z,2.80
2022-07-31T21:20:50.927Z,2.80
2022-07-31T21:23:20.510Z,2.47
2022-07-31T21:25:48.063Z,2.30
2022-07-31T21:28:15.559Z,2.90
2022-07-31T21:30:43.304Z,3.00
2022-07-31T21:33:10.804Z,2.73
2022-07-31T21:35:40.600Z,2.80
2022-07-31T21:38:10.390Z,2.70
2022-07-31T21:40:39.931Z,2.90
2022-07-31T21:43:07.708Z,3.10
2022-07-31T21:45:51.069Z,2.77
2022-07-31T21:48:23.519Z,3.30
2022-07-31T21:50:52.609Z,3.10
2022-07-31T21:53:20.339Z,2.90
2022-07-31T21:55:47.782Z,2.93
2022-07-31T21:58:15.243Z,2.83
2022-07-31T22:00:42.921Z,3.30
2022-07-31T22:03:10.515Z,2.90
2022-07-31T22:05:55.439Z,2.67
2022-07-31T22:08:24.265Z,3.20
2022-07-31T22:10:52.167Z,3.30
2022-07-31T22:13:19.928Z,3.40
2022-07-31T22:15:55.456Z,3.30
2022-07-31T22:18:28.177Z,3.10
2022-07-31T22:20:56.133Z,3.40
2022-07-31T22:23:25.241Z,3.10
2022-07-31T22:25:52.691Z,3.50
2022-07-31T22:28:20.881Z,3.10
2022-07-31T22:30:48.639Z,3.00
2022-07-31T22:33:16.424Z,3.60
2022-07-31T22:35:44.694Z,3.13
2022-07-31T22:38:27.885Z,3.40
2022-07-31T22:40:55.400Z,3.40
2022-07-31T22:44:10.831Z,4.10
2022-07-31T22:46:12.326Z,3.30
2022-07-31T22:48:40.839Z,3.60
2022-07-31T22:51:08.918Z,3.57
2022-07-31T22:53:37.781Z,3.80
2022-07-31T22:56:05.570Z,3.33
2022-07-31T22:58:34.068Z,3.57
2022-07-31T23:01:01.560Z,3.50
2022-07-31T23:03:29.020Z,3.40
2022-07-31T23:06:03.673Z,3.23
2022-07-31T23:08:45.233Z,3.30
2022-07-31T23:11:12.928Z,3.20
2022-07-31T23:13:40.445Z,3.20
2022-07-31T23:16:07.912Z,3.20
2022-07-31T23:18:35.389Z,3.27
2022-07-31T23:21:02.841Z,3.40
2022-07-31T23:23:35.680Z,3.53
2022-07-31T23:26:04.536Z,2.80
2022-07-31T23:28:31.954Z,3.30
2022-07-31T23:30:59.446Z,3.63
2022-07-31T23:33:26.893Z,3.60
2022-07-31T23:35:54.442Z,3.70
2022-07-31T23:38:22.028Z,3.83
2022-07-31T23:40:49.488Z,3.60
2022-07-31T23:43:20.885Z,3.40
2022-07-31T23:45:48.608Z,3.40
2022-07-31T23:48:16.085Z,3.77
2022-07-31T23:50:44.573Z,3.90
2022-07-31T23:53:12.056Z,3.40
2022-07-31T23:55:42.671Z,4.00
2022-07-31T23:58:10.525Z,3.03
